| time (UTC) | temp F | wind direction | speed MPH | gust MPH | rain 1hr in | rain 24hr in | rain mn in | humidity % | barometer mb |
| 20260506084304 | 49 | 332 | 5.0 | 12.0 | 0.00 | 0.00 | 0.00 | 76 | 1011.5 |
| 20260506083304 | 50 | 298 | 3.0 | 10.0 | 0.00 | 0.00 | 0.00 | 78 | 1011.4 |
| 20260506082804 | 50 | 19 | 5.0 | 10.0 | 0.00 | 0.00 | 0.00 | 77 | 1011.4 |
| 20260506081304 | 48 | 331 | 6.0 | 10.0 | 0.00 | 0.00 | 0.00 | 79 | 1011.5 |
| 20260506080306 | 48 | 316 | 7.0 | 13.0 | 0.00 | 0.00 | 0.00 | 78 | 1011.5 |
| 20260506073304 | 48 | 345 | 3.0 | 9.0 | 0.00 | 0.00 | 0.00 | 79 | 1011.4 |
| 20260506072306 | 48 | 344 | 7.0 | 14.0 | 0.00 | 0.00 | 0.00 | 80 | 1011.3 |
| 20260506070804 | 47 | 328 | 5.0 | 12.0 | 0.00 | 0.00 | 0.00 | 82 | 1011.3 |
| 20260506070304 | 47 | 336 | 5.0 | 9.0 | 0.00 | 0.00 | 0.00 | 82 | 1011.2 |
| 20260506060804 | 45 | 12 | 3.0 | 9.0 | 0.00 | 0.00 | 0.00 | 86 | 1011.2 |
| 20260506060303 | 45 | 354 | 6.0 | 13.0 | 0.00 | 0.00 | 0.00 | 87 | 1011.0 |
| 20260506051304 | 45 | 16 | 4.0 | 12.0 | 0.00 | 0.01 | 0.00 | 87 | 1011.0 |
| 20260506050304 | 45 | 356 | 5.0 | 10.0 | 0.00 | 0.01 | 0.00 | 88 | 1010.9 |
| 20260506043804 | 46 | 6 | 6.0 | 12.0 | 0.00 | 0.01 | 0.00 | 88 | 1010.7 |
| 20260506043304 | 46 | 356 | 5.0 | 12.0 | 0.00 | 0.01 | 0.00 | 88 | 1010.6 |
| 20260506042804 | 46 | 6 | 4.0 | 12.0 | 0.00 | 0.01 | 0.00 | 88 | 1010.6 |
| 20260506041804 | 46 | 13 | 4.0 | 9.0 | 0.00 | 0.01 | 0.00 | 88 | 1010.6 |
| 20260506041304 | 46 | 349 | 3.0 | 9.0 | 0.00 | 0.01 | 0.00 | 88 | 1010.5 |
| 20260506040804 | 46 | 2 | 3.0 | 8.0 | 0.00 | 0.01 | 0.00 | 87 | 1010.5 |
| 20260506040304 | 46 | 48 | 3.0 | 9.0 | 0.00 | 0.01 | 0.00 | 87 | 1010.5 |
| 20260506034804 | 46 | 357 | 6.0 | 12.0 | 0.00 | 0.01 | 0.00 | 87 | 1010.5 |
| 20260506034304 | 47 | 10 | 3.0 | 10.0 | 0.00 | 0.01 | 0.00 | 87 | 1010.5 |
| 20260506033304 | 47 | 12 | 5.0 | 9.0 | 0.00 | 0.01 | 0.00 | 87 | 1010.6 |
| 20260506032804 | 47 | 356 | 5.0 | 9.0 | 0.00 | 0.01 | 0.00 | 87 | 1010.6 |
| 20260506032305 | 47 | 25 | 5.0 | 10.0 | 0.00 | 0.01 | 0.00 | 87 | 1010.5 |
| 20260506031304 | 47 | 356 | 3.0 | 10.0 | 0.00 | 0.01 | 0.00 | 86 | 1010.5 |
| 20260506030304 | 47 | 355 | 5.0 | 10.0 | 0.00 | 0.01 | 0.00 | 86 | 1010.6 |
| 20260506025305 | 47 | 14 | 4.0 | 9.0 | 0.00 | 0.01 | 0.00 | 86 | 1010.7 |
| 20260506024304 | 47 | 346 | 6.0 | 12.0 | 0.00 | 0.01 | 0.00 | 86 | 1010.7 |
| 20260506023804 | 47 | 354 | 5.0 | 12.0 | 0.00 | 0.01 | 0.00 | 85 | 1010.7 |
| 20260506023304 | 47 | 13 | 5.0 | 12.0 | 0.00 | 0.01 | 0.00 | 85 | 1010.8 |
| 20260506022804 | 47 | 24 | 4.0 | 10.0 | 0.00 | 0.01 | 0.00 | 85 | 1010.8 |
| 20260506022306 | 47 | 17 | 5.0 | 12.0 | 0.00 | 0.01 | 0.00 | 85 | 1010.8 |
| 20260506021304 | 48 | 36 | 6.0 | 12.0 | 0.00 | 0.01 | 0.00 | 85 | 1010.8 |
| 20260506020804 | 48 | 21 | 5.0 | 12.0 | 0.00 | 0.01 | 0.00 | 85 | 1010.8 |
| 20260506020304 | 48 | 29 | 4.0 | 12.0 | 0.00 | 0.01 | 0.00 | 85 | 1010.8 |
| 20260506015306 | 48 | 30 | 5.0 | 10.0 | 0.00 | 0.01 | 0.00 | 84 | 1010.8 |
| 20260506014804 | 48 | 27 | 6.0 | 12.0 | 0.00 | 0.01 | 0.00 | 84 | 1010.8 |
| 20260506014304 | 48 | 14 | 5.0 | 10.0 | 0.00 | 0.01 | 0.00 | 84 | 1010.9 |
| 20260506013804 | 48 | 11 | 6.0 | 12.0 | 0.00 | 0.01 | 0.00 | 84 | 1010.9 |
| 20260506013304 | 48 | 36 | 7.0 | 13.0 | 0.00 | 0.01 | 0.00 | 84 | 1010.9 |
| 20260506012804 | 48 | 21 | 6.0 | 12.0 | 0.00 | 0.01 | 0.00 | 84 | 1010.9 |
| 20260506012307 | 48 | 42 | 7.0 | 13.0 | 0.00 | 0.01 | 0.00 | 84 | 1010.9 |
| 20260506010304 | 49 | 36 | 7.0 | 13.0 | 0.00 | 0.01 | 0.00 | 85 | 1011.0 |
| 20260506005305 | 49 | 26 | 6.0 | 14.0 | 0.00 | 0.01 | 0.00 | 86 | 1011.0 |
| 20260506004805 | 49 | 10 | 5.0 | 12.0 | 0.00 | 0.01 | 0.00 | 87 | 1011.0 |
| 20260506002804 | 49 | 48 | 5.0 | 12.0 | 0.00 | 0.01 | 0.00 | 86 | 1011.1 |
| 20260506002306 | 49 | 17 | 5.0 | 9.0 | 0.00 | 0.01 | 0.00 | 86 | 1011.2 |
| 20260506001804 | 49 | 12 | 5.0 | 10.0 | 0.00 | 0.01 | 0.00 | 86 | 1011.2 |
| 20260505233304 | 50 | 31 | 3.0 | 9.0 | 0.00 | 0.01 | 0.00 | 83 | 1011.3 |
| 20260505232804 | 50 | 34 | 5.0 | 12.0 | 0.00 | 0.01 | 0.00 | 83 | 1011.3 |
| 20260505231804 | 50 | 18 | 6.0 | 10.0 | 0.00 | 0.01 | 0.00 | 82 | 1011.3 |
| 20260505225306 | 50 | 42 | 4.0 | 7.0 | 0.00 | 0.01 | 0.01 | 81 | 1011.4 |
| 20260505224804 | 50 | 38 | 5.0 | 9.0 | 0.00 | 0.01 | 0.01 | 81 | 1011.4 |
| 20260505224303 | 50 | 36 | 5.0 | 9.0 | 0.00 | 0.01 | 0.01 | 81 | 1011.4 |
| 20260505223804 | 50 | 23 | 5.0 | 12.0 | 0.00 | 0.01 | 0.01 | 80 | 1011.4 |
| 20260505223304 | 50 | 47 | 4.0 | 12.0 | 0.00 | 0.01 | 0.01 | 80 | 1011.4 |
| 20260505222804 | 50 | 26 | 4.0 | 9.0 | 0.00 | 0.01 | 0.01 | 80 | 1011.4 |
| 20260505222305 | 50 | 32 | 5.0 | 10.0 | 0.00 | 0.01 | 0.01 | 79 | 1011.4 |
| 20260505221803 | 50 | 37 | 4.0 | 9.0 | 0.00 | 0.01 | 0.01 | 79 | 1011.4 |
| 20260505220804 | 50 | 39 | 3.0 | 9.0 | 0.00 | 0.01 | 0.01 | 78 | 1011.5 |
| 20260505220303 | 51 | 24 | 5.0 | 12.0 | 0.00 | 0.01 | 0.01 | 78 | 1011.4 |
| 20260505215804 | 51 | 53 | 2.0 | 10.0 | 0.00 | 0.01 | 0.01 | 77 | 1011.4 |
| 20260505214804 | 51 | 45 | 3.0 | 9.0 | 0.00 | 0.01 | 0.01 | 77 | 1011.3 |
| 20260505213804 | 51 | 31 | 5.0 | 9.0 | 0.00 | 0.01 | 0.01 | 75 | 1011.3 |
| 20260505212804 | 51 | 7 | 2.0 | 8.0 | 0.00 | 0.01 | 0.01 | 75 | 1011.3 |
| 20260505212305 | 51 | 51 | 2.0 | 7.0 | 0.00 | 0.01 | 0.01 | 75 | 1011.4 |
| 20260505211804 | 51 | 25 | 3.0 | 7.0 | 0.00 | 0.01 | 0.01 | 74 | 1011.4 |
| 20260505211304 | 51 | 46 | 2.0 | 8.0 | 0.00 | 0.01 | 0.01 | 74 | 1011.4 |
| 20260505205305 | 51 | 37 | 4.0 | 12.0 | 0.00 | 0.01 | 0.01 | 72 | 1011.3 |
| 20260505204804 | 51 | 51 | 5.0 | 10.0 | 0.00 | 0.01 | 0.01 | 72 | 1011.3 |
| 20260505204304 | 52 | 20 | 3.0 | 8.0 | 0.00 | 0.01 | 0.01 | 72 | 1011.4 |
| 20260505203804 | 52 | 6 | 3.0 | 7.0 | 0.00 | 0.01 | 0.01 | 72 | 1011.4 |
| 20260505203304 | 52 | 12 | 3.0 | 6.0 | 0.00 | 0.01 | 0.01 | 71 | 1011.3 |
| 20260505202804 | 52 | 40 | 2.0 | 5.0 | 0.00 | 0.01 | 0.01 | 71 | 1011.3 |
| 20260505202306 | 52 | 26 | 3.0 | 6.0 | 0.00 | 0.01 | 0.01 | 71 | 1011.2 |
| 20260505201804 | 52 | 38 | 4.0 | 8.0 | 0.00 | 0.01 | 0.01 | 70 | 1011.2 |
| 20260505201304 | 52 | 39 | 3.0 | 7.0 | 0.00 | 0.01 | 0.01 | 70 | 1011.0 |
| 20260505200804 | 52 | 69 | 4.0 | 7.0 | 0.00 | 0.01 | 0.01 | 70 | 1011.0 |
| 20260505200304 | 52 | 39 | 3.0 | 9.0 | 0.00 | 0.01 | 0.01 | 71 | 1011.0 |
| 20260505195305 | 53 | 52 | 3.0 | 8.0 | 0.00 | 0.01 | 0.01 | 72 | 1010.8 |
| 20260505194304 | 53 | 67 | 2.0 | 3.0 | 0.00 | 0.01 | 0.01 | 73 | 1010.7 |
| 20260505193304 | 53 | 34 | 3.0 | 9.0 | 0.00 | 0.01 | 0.01 | 72 | 1010.7 |
| 20260505192804 | 53 | 26 | 2.0 | 5.0 | 0.00 | 0.01 | 0.01 | 73 | 1010.7 |
| 20260505191804 | 54 | 42 | 2.0 | 6.0 | 0.00 | 0.01 | 0.01 | 72 | 1010.6 |
| 20260505190804 | 54 | 63 | 3.0 | 7.0 | 0.00 | 0.01 | 0.01 | 71 | 1010.5 |
| 20260505190303 | 54 | 62 | 2.0 | 6.0 | 0.00 | 0.01 | 0.01 | 70 | 1010.5 |
| 20260505185804 | 55 | 52 | 1.0 | 3.0 | 0.00 | 0.01 | 0.01 | 70 | 1010.5 |
| 20260505180304 | 56 | 52 | 3.0 | 7.0 | 0.00 | 0.01 | 0.01 | 67 | 1010.3 |
| 20260505175305 | 56 | 48 | 3.0 | 6.0 | 0.00 | 0.01 | 0.01 | 67 | 1010.4 |
| 20260505174804 | 56 | 17 | 3.0 | 8.0 | 0.00 | 0.01 | 0.01 | 66 | 1010.4 |
| 20260505174304 | 57 | 68 | 2.0 | 8.0 | 0.00 | 0.01 | 0.01 | 66 | 1010.4 |
| 20260505171803 | 58 | 37 | 4.0 | 9.0 | 0.00 | 0.01 | 0.01 | 64 | 1010.4 |
| 20260505171304 | 58 | 22 | 3.0 | 7.0 | 0.00 | 0.01 | 0.01 | 64 | 1010.5 |
| 20260505165306 | 58 | 88 | 2.0 | 3.0 | 0.00 | 0.01 | 0.01 | 63 | 1010.4 |
| 20260505163804 | 58 | 65 | 3.0 | 6.0 | 0.00 | 0.01 | 0.01 | 62 | 1010.5 |
| 20260505161804 | 58 | 79 | 3.0 | 9.0 | 0.00 | 0.01 | 0.01 | 60 | 1010.5 |
| 20260505152804 | 60 | 24 | 4.0 | 9.0 | 0.00 | 0.01 | 0.01 | 58 | 1010.6 |
| 20260505130305 | 58 | 13 | 7.0 | 12.0 | 0.00 | 0.01 | 0.01 | 61 | 1011.1 |
| 20260505124304 | 58 | 49 | 6.0 | 12.0 | 0.00 | 0.01 | 0.01 | 63 | 1011.0 |
| 20260505123804 | 59 | 6 | 4.0 | 8.0 | 0.00 | 0.01 | 0.01 | 64 | 1011.0 |
| 20260505123304 | 59 | 34 | 3.0 | 9.0 | 0.00 | 0.01 | 0.01 | 64 | 1011.2 |
| 20260505122305 | 59 | 36 | 5.0 | 12.0 | 0.00 | 0.01 | 0.01 | 68 | 1011.1 |
| 20260505121303 | 58 | 73 | 5.0 | 12.0 | 0.00 | 0.01 | 0.01 | 66 | 1011.2 |
| 20260505120304 | 58 | 75 | 5.0 | 10.0 | 0.00 | 0.01 | 0.01 | 66 | 1011.2 |
| 20260505112305 | 56 | 87 | 6.0 | 13.0 | 0.00 | 0.01 | 0.01 | 69 | 1011.4 |
| 20260505101804 | 57 | 16 | 6.0 | 12.0 | 0.00 | 0.01 | 0.01 | 69 | 1011.4 |
| 20260505100304 | 57 | 57 | 5.0 | 13.0 | 0.00 | 0.01 | 0.01 | 73 | 1011.4 |
| 20260505095305 | 57 | 99 | 3.0 | 10.0 | 0.00 | 0.01 | 0.01 | 74 | 1011.5 |
| 20260505094804 | 56 | 37 | 4.0 | 12.0 | 0.00 | 0.01 | 0.01 | 75 | 1011.5 |
| 20260505094303 | 56 | 56 | 7.0 | 14.0 | 0.00 | 0.01 | 0.01 | 76 | 1011.6 |
| 20260505093804 | 56 | 5 | 5.0 | 10.0 | 0.00 | 0.01 | 0.01 | 78 | 1011.6 |
| 20260505092803 | 55 | 20 | 7.0 | 13.0 | 0.00 | 0.01 | 0.01 | 79 | 1011.6 |
| 20260505091804 | 55 | 18 | 6.0 | 12.0 | 0.00 | 0.01 | 0.01 | 81 | 1011.6 |
| 20260505091304 | 54 | 14 | 3.0 | 12.0 | 0.00 | 0.01 | 0.01 | 83 | 1011.7 |
| 20260505085804 | 54 | 22 | 6.0 | 12.0 | 0.00 | 0.01 | 0.01 | 83 | 1011.7 |